Time;durP1;ratioP1;P1;durP2;ratioP2;P2;SDS_P1;SDS_P2;PMS_P1;PMS_P2;Temp;Humidity;BMP_temperature;BMP_pressure;BME280_temperature;BME280_humidity;BME280_pressure;Samples;Min_cycle;Max_cycle;Signal;HPM_P1;HPM_P2
2023/12/17 00:01:36;;;;;;;51.63;26.70;;;;;;;-1.06;100.00;102560.50;1457917;89;22342;-79
2023/12/17 00:04:02;;;;;;;45.20;24.57;;;;;;;-1.04;100.00;102565.22;1456872;90;22306;-80
2023/12/17 00:06:28;;;;;;;50.60;27.00;;;;;;;-1.02;100.00;102567.37;1453536;90;22126;-79
2023/12/17 00:08:54;;;;;;;52.70;28.37;;;;;;;-1.00;100.00;102569.97;1453515;89;21877;-79
2023/12/17 00:11:21;;;;;;;47.00;25.83;;;;;;;-1.01;100.00;102569.08;1443596;90;21720;-80
2023/12/17 00:13:47;;;;;;;45.70;25.00;;;;;;;-1.00;100.00;102562.16;1458168;90;22636;-80
2023/12/17 00:16:13;;;;;;;40.63;22.43;;;;;;;-0.99;100.00;102556.92;1458967;90;21553;-78
2023/12/17 00:18:39;;;;;;;41.07;23.80;;;;;;;-1.00;100.00;102557.82;1446110;90;21603;-79
2023/12/17 00:21:05;;;;;;;40.23;21.87;;;;;;;-0.99;100.00;102556.92;1457529;90;21803;-79
2023/12/17 00:23:31;;;;;;;41.63;23.63;;;;;;;-0.98;100.00;102555.18;1455956;90;21900;-78
2023/12/17 00:25:57;;;;;;;39.87;23.10;;;;;;;-0.99;100.00;102564.73;1455773;90;21757;-79
2023/12/17 00:28:24;;;;;;;40.40;22.47;;;;;;;-0.99;100.00;102562.13;1456392;90;21869;-79
2023/12/17 00:30:50;;;;;;;38.33;22.37;;;;;;;-0.99;100.00;102557.38;1455418;90;21692;-79
2023/12/17 00:33:17;;;;;;;39.97;21.60;;;;;;;-1.00;100.00;102566.06;1451025;90;21757;-79
2023/12/17 00:35:43;;;;;;;40.03;24.47;;;;;;;-1.02;100.00;102573.87;1451228;89;21770;-79
2023/12/17 00:38:09;;;;;;;40.43;24.10;;;;;;;-1.08;100.00;102585.65;1458939;90;21596;-79
2023/12/17 00:40:37;;;;;;;49.23;25.53;;;;;;;-1.10;100.00;102591.74;1450275;90;21540;-79
2023/12/17 00:43:03;;;;;;;64.73;32.77;;;;;;;-1.12;100.00;102589.18;1457465;89;21877;-80
2023/12/17 00:45:29;;;;;;;55.83;29.30;;;;;;;-1.12;100.00;102583.09;1456861;90;21790;-78
2023/12/17 00:47:55;;;;;;;52.30;26.70;;;;;;;-1.11;100.00;102583.53;1452218;90;21632;-78
2023/12/17 00:50:22;;;;;;;56.93;27.70;;;;;;;-1.10;100.00;102580.05;1444892;90;22659;-79
2023/12/17 00:52:48;;;;;;;50.90;26.17;;;;;;;-1.10;100.00;102579.60;1458398;90;22669;-79
2023/12/17 00:55:14;;;;;;;45.47;23.93;;;;;;;-1.12;100.00;102578.78;1448970;90;21589;-77
2023/12/17 00:57:40;;;;;;;45.93;25.10;;;;;;;-1.12;100.00;102576.19;1445092;90;21777;-78
2023/12/17 01:00:08;;;;;;;39.90;23.27;;;;;;;-1.13;100.00;102570.55;1449060;90;22633;-79
2023/12/17 01:02:34;;;;;;;45.97;25.93;;;;;;;-1.12;100.00;102568.39;1452068;89;21851;-80
2023/12/17 01:05:00;;;;;;;46.33;26.13;;;;;;;-1.12;100.00;102570.11;1461927;89;23202;-80
2023/12/17 01:07:26;;;;;;;41.73;23.10;;;;;;;-1.14;100.00;102573.59;1452364;89;21775;-80
2023/12/17 01:09:52;;;;;;;46.33;27.47;;;;;;;-1.16;100.00;102569.29;1456067;89;21654;-80
2023/12/17 01:12:19;;;;;;;39.63;23.53;;;;;;;-1.15;100.00;102564.53;1448282;90;21667;-80
2023/12/17 01:14:45;;;;;;;59.90;28.43;;;;;;;-1.16;100.00;102566.70;1461014;90;21650;-80
2023/12/17 01:17:11;;;;;;;50.13;28.60;;;;;;;-1.15;100.00;102567.13;1454171;90;22574;-80
2023/12/17 01:19:38;;;;;;;53.93;30.93;;;;;;;-1.14;100.00;102568.84;1452727;90;22589;-80
2023/12/17 01:22:04;;;;;;;53.37;30.97;;;;;;;-1.15;100.00;102570.59;1450196;90;21810;-80
2023/12/17 01:24:31;;;;;;;47.03;27.27;;;;;;;-1.17;100.00;102577.53;1450054;90;21823;-79
2023/12/17 01:26:59;;;;;;;47.60;25.92;;;;;;;-1.19;100.00;102577.98;1455716;90;21709;-80
2023/12/17 01:29:25;;;;;;;71.80;35.17;;;;;;;-1.20;100.00;102570.23;1448105;89;22307;-79
2023/12/17 01:31:52;;;;;;;65.43;33.40;;;;;;;-1.22;100.00;102571.98;1456720;90;21618;-79
2023/12/17 01:34:22;;;;;;;75.63;36.00;;;;;;;-1.25;100.00;102563.77;1453580;90;21573;-78
2023/12/17 01:36:46;;;;;;;85.23;39.57;;;;;;;-1.26;100.00;102559.91;1460910;89;21893;-80
2023/12/17 01:39:13;;;;;;;65.13;34.40;;;;;;;-1.29;100.00;102548.27;1454379;89;22293;-79
2023/12/17 01:41:39;;;;;;;69.67;39.27;;;;;;;-1.32;100.00;102527.08;1453558;89;22204;-79
2023/12/17 01:44:05;;;;;;;77.13;43.50;;;;;;;-1.34;100.00;102512.39;1455227;89;21676;-79
2023/12/17 01:46:31;;;;;;;64.40;37.00;;;;;;;-1.36;100.00;102508.05;1441472;89;21774;-79
2023/12/17 01:48:59;;;;;;;55.53;31.67;;;;;;;-1.36;100.00;102511.95;1461745;89;21811;-79
2023/12/17 01:51:27;;;;;;;64.00;36.83;;;;;;;-1.37;100.00;102512.84;1460796;89;21737;-78
2023/12/17 01:53:54;;;;;;;63.23;35.17;;;;;;;-1.33;100.00;102514.09;1426096;89;21991;-78
2023/12/17 01:56:20;;;;;;;56.60;32.80;;;;;;;-1.31;100.00;102505.84;1454545;89;21508;-78
2023/12/17 01:58:48;;;;;;;43.93;25.07;;;;;;;-1.28;100.00;102511.85;1464803;89;21872;-78
2023/12/17 02:01:15;;;;;;;44.80;25.07;;;;;;;-1.25;100.00;102511.81;1456426;89;21603;-78
2023/12/17 02:03:41;;;;;;;44.57;25.77;;;;;;;-1.20;100.00;102513.06;1451997;89;21678;-78
2023/12/17 02:06:09;;;;;;;49.70;26.03;;;;;;;-1.16;100.00;102512.97;1459952;89;21711;-77
2023/12/17 02:08:36;;;;;;;50.87;27.63;;;;;;;-1.12;100.00;102519.02;1459699;89;21688;-78
2023/12/17 02:11:03;;;;;;;50.00;28.67;;;;;;;-1.09;100.00;102518.97;1463072;89;21559;-78
2023/12/17 02:13:30;;;;;;;48.00;27.37;;;;;;;-1.07;100.00;102510.69;1460716;89;21951;-78
2023/12/17 02:15:56;;;;;;;48.03;28.70;;;;;;;-1.05;100.00;102509.38;1455398;89;21721;-77
2023/12/17 02:18:22;;;;;;;44.93;26.90;;;;;;;-1.05;100.00;102505.48;1449541;89;22634;-79
2023/12/17 02:20:48;;;;;;;54.00;29.03;;;;;;;-1.01;100.00;102507.99;1459947;89;21515;-78
2023/12/17 02:23:14;;;;;;;46.07;27.20;;;;;;;-0.98;100.00;102509.69;1458513;89;21580;-78
2023/12/17 02:25:41;;;;;;;47.53;27.37;;;;;;;-0.97;100.00;102507.53;1462012;89;22393;-77
2023/12/17 02:28:07;;;;;;;50.00;27.67;;;;;;;-0.95;100.00;102509.23;1455783;89;21640;-78
2023/12/17 02:30:33;;;;;;;50.60;28.40;;;;;;;-0.92;100.00;102509.62;1455073;89;21875;-78
2023/12/17 02:32:59;;;;;;;42.57;24.93;;;;;;;-0.89;100.00;102489.20;1459093;89;21505;-77
2023/12/17 02:35:26;;;;;;;45.37;26.93;;;;;;;-0.88;100.00;102496.13;1462340;89;21829;-79
2023/12/17 02:37:52;;;;;;;49.07;28.57;;;;;;;-0.85;100.00;102506.48;1462602;89;21771;-79
2023/12/17 02:40:18;;;;;;;53.47;28.40;;;;;;;-0.83;100.00;102503.43;1446302;89;21689;-79
2023/12/17 02:42:44;;;;;;;47.93;27.20;;;;;;;-0.80;100.00;102494.28;1460125;89;21766;-79
2023/12/17 02:45:12;;;;;;;47.97;27.37;;;;;;;-0.80;100.00;102481.28;1453683;89;21738;-78
2023/12/17 02:47:39;;;;;;;47.90;29.07;;;;;;;-0.79;100.00;102477.34;1461889;89;21826;-79
2023/12/17 02:50:06;;;;;;;48.90;28.50;;;;;;;-0.76;100.00;102484.23;1461490;89;21647;-79
2023/12/17 02:52:33;;;;;;;54.03;30.93;;;;;;;-0.72;100.00;102507.99;1449985;89;21864;-79
2023/12/17 02:54:59;;;;;;;44.80;23.30;;;;;;;-0.68;100.00;102509.67;1454706;89;21624;-79
2023/12/17 02:57:26;;;;;;;44.87;26.17;;;;;;;-0.66;100.00;102501.42;1463760;89;21803;-79
2023/12/17 02:59:54;;;;;;;44.30;23.97;;;;;;;-0.64;100.00;102499.62;1461877;89;21628;-79
2023/12/17 03:02:20;;;;;;;46.10;25.20;;;;;;;-0.64;100.00;102491.83;1453912;89;22590;-79
2023/12/17 03:04:47;;;;;;;45.23;26.07;;;;;;;-0.64;100.00;102485.33;1464598;89;22214;-77
2023/12/17 03:07:14;;;;;;;43.43;25.53;;;;;;;-0.62;100.00;102500.92;1460374;89;22740;-79
2023/12/17 03:09:40;;;;;;;43.30;24.17;;;;;;;-0.61;100.00;102508.68;1454740;89;21726;-78
2023/12/17 03:12:06;;;;;;;41.03;24.53;;;;;;;-0.58;100.00;102512.53;1460220;89;21599;-78
2023/12/17 03:14:32;;;;;;;46.33;27.90;;;;;;;-0.54;100.00;102514.66;1462265;89;21737;-78
2023/12/17 03:16:58;;;;;;;39.37;22.70;;;;;;;-0.50;100.00;102524.97;1463137;89;21769;-78
2023/12/17 03:19:25;;;;;;;43.60;25.83;;;;;;;-0.44;100.00;102522.71;1461049;89;21784;-78
2023/12/17 03:21:51;;;;;;;48.57;28.53;;;;;;;-0.37;100.00;102515.23;1463674;89;22903;-78
2023/12/17 03:24:19;;;;;;;47.70;26.30;;;;;;;-0.32;100.00;102502.13;1454408;89;21737;-79
2023/12/17 03:26:45;;;;;;;50.77;25.43;;;;;;;-0.29;100.00;102494.27;1464309;89;21633;-78
2023/12/17 03:29:11;;;;;;;50.80;30.80;;;;;;;-0.27;100.00;102511.57;1459615;89;21668;-78
2023/12/17 03:31:38;;;;;;;52.20;28.77;;;;;;;-0.24;100.00;102517.17;1451458;89;21667;-79
2023/12/17 03:34:05;;;;;;;46.03;26.90;;;;;;;-0.24;100.00;102517.17;1456060;89;22893;-79
2023/12/17 03:36:31;;;;;;;48.53;27.00;;;;;;;-0.20;100.00;102521.87;1452631;89;21798;-79
2023/12/17 03:38:57;;;;;;;46.80;26.23;;;;;;;-0.15;100.00;102526.11;1445325;90;21618;-79
2023/12/17 03:41:27;;;;;;;42.57;26.03;;;;;;;-0.09;100.00;102529.89;1451027;90;22824;-79
2023/12/17 03:43:56;;;;;;;48.47;27.67;;;;;;;-0.05;100.00;102526.37;1455335;89;21850;-79
2023/12/17 03:46:24;;;;;;;51.00;28.77;;;;;;;0.01;100.00;102531.05;1462159;90;21641;-79
2023/12/17 03:48:50;;;;;;;55.10;29.23;;;;;;;0.01;100.00;102525.84;1459142;89;21928;-80
2023/12/17 03:51:18;;;;;;;46.93;27.80;;;;;;;0.01;100.00;102524.09;1439139;90;21823;-78
2023/12/17 03:53:44;;;;;;;49.07;26.63;;;;;;;0.01;100.00;102521.94;1458562;89;21818;-78
2023/12/17 03:56:13;;;;;;;45.20;27.43;;;;;;;0.01;100.00;102518.89;1457493;90;21773;-79
2023/12/17 03:58:40;;;;;;;47.20;26.10;;;;;;;0.02;100.00;102508.03;1450347;90;22404;-78
2023/12/17 04:01:07;;;;;;;42.80;25.73;;;;;;;-0.01;100.00;102503.28;1454051;89;21559;-78
2023/12/17 04:03:34;;;;;;;44.87;26.47;;;;;;;-0.02;100.00;102504.18;1461655;89;21661;-78
2023/12/17 04:06:04;;;;;;;44.53;25.67;;;;;;;0.01;100.00;102507.63;1463954;89;22770;-78
2023/12/17 04:08:30;;;;;;;42.43;24.87;;;;;;;0.02;100.00;102504.13;1464056;90;21580;-79
2023/12/17 04:10:57;;;;;;;43.23;24.30;;;;;;;0.04;100.00;102498.45;1442669;90;21750;-79
2023/12/17 04:13:23;;;;;;;44.77;23.70;;;;;;;0.02;100.00;102507.58;1452093;90;21760;-78
2023/12/17 04:15:49;;;;;;;42.33;26.13;;;;;;;0.02;100.00;102501.52;1451350;90;22686;-78
2023/12/17 04:18:15;;;;;;;45.07;25.07;;;;;;;-0.02;100.00;102505.93;1458430;90;21697;-81
2023/12/17 04:20:41;;;;;;;42.93;24.73;;;;;;;-0.07;100.00;102495.59;1453984;89;21889;-80
2023/12/17 04:23:07;;;;;;;43.07;24.47;;;;;;;-0.11;100.00;102496.55;1453354;89;21722;-79
2023/12/17 04:25:34;;;;;;;39.03;24.20;;;;;;;-0.13;100.00;102498.31;1450835;90;22705;-78
2023/12/17 04:28:00;;;;;;;43.50;23.80;;;;;;;-0.14;100.00;102490.55;1454923;89;22117;-79
2023/12/17 04:30:26;;;;;;;41.43;22.97;;;;;;;-0.18;100.00;102488.42;1451347;89;21861;-78
2023/12/17 04:32:52;;;;;;;42.03;26.27;;;;;;;-0.20;100.00;102497.14;1454072;90;21764;-79
2023/12/17 04:35:18;;;;;;;40.73;22.17;;;;;;;-0.25;100.00;102498.09;1452544;90;22677;-78
2023/12/17 04:37:44;;;;;;;40.90;24.57;;;;;;;-0.24;100.00;102488.09;1466002;89;21785;-79
2023/12/17 04:40:12;;;;;;;44.00;25.13;;;;;;;-0.25;100.00;102491.59;1460446;89;21605;-79
2023/12/17 04:42:38;;;;;;;38.23;23.23;;;;;;;-0.29;100.00;102497.75;1461557;88;22541;-79
2023/12/17 04:45:06;;;;;;;41.90;24.70;;;;;;;-0.31;100.00;102502.56;1462080;89;21633;-79
2023/12/17 04:47:32;;;;;;;37.37;22.40;;;;;;;-0.32;100.00;102518.59;1460780;88;21695;-80
2023/12/17 04:49:59;;;;;;;41.07;23.77;;;;;;;-0.34;100.00;102527.34;1466384;89;21875;-79
2023/12/17 04:52:26;;;;;;;44.03;26.67;;;;;;;-0.36;100.00;102536.91;1463826;89;22562;-79
2023/12/17 04:54:52;;;;;;;45.00;25.70;;;;;;;-0.39;100.00;102529.16;1463005;89;21646;-78
2023/12/17 04:57:18;;;;;;;43.33;25.90;;;;;;;-0.39;100.00;102535.66;1464527;89;21642;-79
2023/12/17 04:59:44;;;;;;;42.10;24.77;;;;;;;-0.41;100.00;102534.36;1456436;88;21704;-79
2023/12/17 05:02:10;;;;;;;50.07;28.17;;;;;;;-0.43;100.00;102526.16;1468647;88;21727;-80
2023/12/17 05:04:37;;;;;;;45.03;28.20;;;;;;;-0.48;100.00;102514.11;1466287;89;21823;-79
2023/12/17 05:07:03;;;;;;;42.80;25.77;;;;;;;-0.52;100.00;102505.95;1464505;89;22451;-80
2023/12/17 05:09:29;;;;;;;43.70;25.23;;;;;;;-0.53;100.00;102510.72;1468508;88;21692;-79
2023/12/17 05:11:56;;;;;;;47.97;28.27;;;;;;;-0.55;100.00;102507.27;1462432;89;22600;-79
2023/12/17 05:14:22;;;;;;;43.07;27.00;;;;;;;-0.57;100.00;102496.51;1464717;88;21499;-78
2023/12/17 05:16:49;;;;;;;52.37;29.40;;;;;;;-0.64;100.00;102497.03;1468369;89;21863;-79
2023/12/17 05:19:15;;;;;;;51.67;29.67;;;;;;;-0.72;100.00;102497.59;1469011;89;22661;-78
2023/12/17 05:21:41;;;;;;;49.80;29.03;;;;;;;-0.79;100.00;102502.48;1460242;89;21787;-78
2023/12/17 05:24:07;;;;;;;45.53;29.43;;;;;;;-0.84;100.00;102501.69;1463524;89;21774;-77
2023/12/17 05:26:33;;;;;;;52.83;30.17;;;;;;;-0.88;100.00;102497.44;1461259;89;21776;-79
2023/12/17 05:28:59;;;;;;;52.67;29.97;;;;;;;-0.92;100.00;102504.43;1467682;88;21755;-78
2023/12/17 05:31:25;;;;;;;55.00;30.47;;;;;;;-0.96;100.00;102490.59;1461358;89;21767;-78
2023/12/17 05:33:52;;;;;;;49.83;30.77;;;;;;;-0.97;100.00;102485.44;1461669;89;21659;-79
2023/12/17 05:36:18;;;;;;;57.80;30.37;;;;;;;-1.04;100.00;102483.34;1463817;89;22607;-78
2023/12/17 05:38:45;;;;;;;54.63;30.90;;;;;;;-1.09;100.00;102490.38;1461314;90;21892;-76
2023/12/17 05:41:12;;;;;;;56.27;33.03;;;;;;;-1.15;100.00;102489.17;1458282;90;21502;-77
2023/12/17 05:43:38;;;;;;;57.90;35.47;;;;;;;-1.16;100.00;102491.33;1455534;89;21765;-77
2023/12/17 05:46:05;;;;;;;71.53;37.43;;;;;;;-1.18;100.00;102500.87;1449621;90;21707;-77
2023/12/17 05:48:31;;;;;;;58.40;33.93;;;;;;;-1.17;100.00;102497.42;1455623;90;21930;-77
2023/12/17 05:50:57;;;;;;;56.43;31.03;;;;;;;-1.14;100.00;102494.78;1456646;90;21914;-76
2023/12/17 05:53:24;;;;;;;54.70;31.60;;;;;;;-1.12;100.00;102497.34;1461795;90;21762;-77
2023/12/17 05:55:51;;;;;;;59.43;33.80;;;;;;;-1.08;100.00;102503.78;1451430;90;21794;-77
2023/12/17 05:58:17;;;;;;;56.83;32.27;;;;;;;-1.04;100.00;102507.19;1449011;89;21657;-78
2023/12/17 06:00:43;;;;;;;57.33;33.70;;;;;;;-1.00;100.00;102514.08;1450201;89;22640;-77
2023/12/17 06:03:09;;;;;;;59.60;33.67;;;;;;;-0.98;100.00;102510.99;1443975;90;22195;-78
2023/12/17 06:05:36;;;;;;;56.97;34.03;;;;;;;-0.95;100.00;102511.83;1459018;90;21641;-77
2023/12/17 06:08:02;;;;;;;62.90;32.73;;;;;;;-0.91;100.00;102513.94;1450935;90;21657;-77
2023/12/17 06:10:28;;;;;;;64.50;36.60;;;;;;;-0.91;100.00;102488.79;1454695;90;22590;-78
2023/12/17 06:12:55;;;;;;;59.17;33.30;;;;;;;-0.87;100.00;102486.14;1457377;90;21940;-78
2023/12/17 06:15:21;;;;;;;59.87;33.30;;;;;;;-0.85;100.00;102498.69;1459420;90;21678;-78
2023/12/17 06:17:47;;;;;;;63.03;35.13;;;;;;;-0.81;100.00;102517.24;1453579;90;21752;-78
2023/12/17 06:20:14;;;;;;;63.83;35.07;;;;;;;-0.78;100.00;102524.55;1453187;90;21611;-77
2023/12/17 06:22:40;;;;;;;66.73;37.07;;;;;;;-0.74;100.00;102535.78;1456113;89;22504;-77
2023/12/17 06:25:07;;;;;;;69.93;36.30;;;;;;;-0.70;100.00;102547.84;1456483;90;22270;-76
2023/12/17 06:27:36;;;;;;;66.50;37.27;;;;;;;-0.67;100.00;102542.59;1453631;89;21684;-76
2023/12/17 06:30:02;;;;;;;63.57;40.47;;;;;;;-0.63;100.00;102541.68;1458273;90;22467;-77
2023/12/17 06:32:28;;;;;;;63.33;35.13;;;;;;;-0.59;100.00;102536.83;1445176;90;22612;-77
2023/12/17 06:34:54;;;;;;;65.30;36.33;;;;;;;-0.55;100.00;102520.28;1456153;89;21605;-78
2023/12/17 06:37:20;;;;;;;67.53;37.40;;;;;;;-0.50;100.00;102521.07;1456219;89;22154;-78
2023/12/17 06:39:46;;;;;;;65.43;36.60;;;;;;;-0.45;100.00;102511.91;1461713;90;21686;-78
2023/12/17 06:42:13;;;;;;;60.57;36.50;;;;;;;-0.39;100.00;102508.34;1451739;90;22566;-76
2023/12/17 06:44:39;;;;;;;50.33;29.47;;;;;;;-0.34;100.00;102518.23;1455055;90;21821;-78
2023/12/17 06:47:05;;;;;;;58.77;35.07;;;;;;;-0.31;100.00;102512.97;1453315;90;21831;-77
2023/12/17 06:49:31;;;;;;;58.13;33.97;;;;;;;-0.26;100.00;102505.50;1455075;90;21642;-77
2023/12/17 06:51:58;;;;;;;95.50;42.83;;;;;;;-0.21;100.00;102502.80;1453582;89;21930;-78
2023/12/17 06:54:24;;;;;;;65.67;36.50;;;;;;;-0.19;100.00;102507.54;1457046;90;21870;-76
2023/12/17 06:56:51;;;;;;;77.00;37.73;;;;;;;-0.13;100.00;102503.52;1457638;90;21731;-78
2023/12/17 06:59:17;;;;;;;78.67;42.53;;;;;;;-0.09;100.00;102515.58;1448838;90;21450;-77
2023/12/17 07:01:43;;;;;;;71.07;38.07;;;;;;;-0.06;100.00;102529.88;1448987;90;22613;-77
2023/12/17 07:04:09;;;;;;;64.37;35.10;;;;;;;-0.03;100.00;102536.73;1449361;90;21678;-77
2023/12/17 07:06:36;;;;;;;71.97;36.10;;;;;;;0.02;100.00;102548.37;1449455;90;21790;-77
2023/12/17 07:09:02;;;;;;;64.33;37.07;;;;;;;0.06;100.00;102555.23;1461006;90;22165;-77
2023/12/17 07:11:28;;;;;;;63.50;34.30;;;;;;;0.10;100.00;102564.28;1447450;90;21713;-78
2023/12/17 07:13:55;;;;;;;69.60;36.20;;;;;;;0.12;100.00;102551.25;1458211;90;21662;-78
2023/12/17 07:16:25;;;;;;;62.80;35.27;;;;;;;0.12;100.00;102544.73;1450546;90;21810;-78
2023/12/17 07:18:52;;;;;;;55.75;28.92;;;;;;;0.09;100.00;102549.55;1449151;89;21849;-78
2023/12/17 07:21:19;;;;;;;74.30;40.20;;;;;;;0.07;100.00;102541.35;1459532;89;21427;-78
2023/12/17 07:23:45;;;;;;;62.93;35.87;;;;;;;0.06;100.00;102553.52;1453343;90;21590;-77
2023/12/17 07:26:11;;;;;;;63.50;33.40;;;;;;;0.07;100.00;102547.41;1456164;89;22491;-78
2023/12/17 07:28:37;;;;;;;63.07;34.23;;;;;;;0.06;100.00;102547.42;1451409;90;21768;-77
2023/12/17 07:31:04;;;;;;;56.67;32.50;;;;;;;0.08;100.00;102558.23;1451607;90;21788;-77
2023/12/17 07:33:30;;;;;;;64.23;38.70;;;;;;;0.09;100.00;102565.63;1451332;90;21707;-76
2023/12/17 07:35:56;;;;;;;68.57;35.83;;;;;;;0.08;100.00;102571.70;1456227;89;21633;-77
2023/12/17 07:38:23;;;;;;;69.23;35.90;;;;;;;0.11;100.00;102580.75;1456369;89;21838;-76
2023/12/17 07:40:49;;;;;;;59.90;32.60;;;;;;;0.14;100.00;102588.51;1460110;89;21832;-76
2023/12/17 07:43:15;;;;;;;66.97;35.67;;;;;;;0.15;100.00;102589.80;1466957;89;22869;-76
2023/12/17 07:45:42;;;;;;;69.30;37.00;;;;;;;0.17;100.00;102589.75;1450274;89;21693;-76
2023/12/17 07:48:08;;;;;;;68.53;36.93;;;;;;;0.22;100.00;102603.55;1465969;89;22552;-76
2023/12/17 07:50:34;;;;;;;58.83;30.70;;;;;;;0.26;100.00;102609.14;1455289;89;22747;-77
2023/12/17 07:53:01;;;;;;;76.27;38.50;;;;;;;0.30;100.00;102604.73;1460278;89;21634;-76
2023/12/17 07:55:28;;;;;;;70.03;37.83;;;;;;;0.30;100.00;102599.07;1455017;89;21858;-76
2023/12/17 07:57:54;;;;;;;69.77;39.67;;;;;;;0.30;100.00;102596.91;1456787;89;22245;-76
2023/12/17 08:00:21;;;;;;;78.13;37.83;;;;;;;0.29;100.00;102599.08;1458549;89;21873;-77
2023/12/17 08:02:47;;;;;;;69.17;34.90;;;;;;;0.27;100.00;102603.03;1466897;89;22176;-76
2023/12/17 08:05:13;;;;;;;68.13;37.37;;;;;;;0.31;100.00;102608.59;1459739;89;21657;-77
2023/12/17 08:07:39;;;;;;;67.67;35.23;;;;;;;0.35;100.00;102609.41;1459750;89;21693;-77
2023/12/17 08:10:08;;;;;;;57.53;33.37;;;;;;;0.37;100.00;102599.80;1459186;89;22811;-77
2023/12/17 08:12:34;;;;;;;60.77;31.47;;;;;;;0.41;100.00;102598.42;1453928;89;22649;-76
2023/12/17 08:15:00;;;;;;;59.67;34.47;;;;;;;0.44;100.00;102599.67;1451714;89;21803;-76
2023/12/17 08:17:27;;;;;;;60.50;35.70;;;;;;;0.45;100.00;102594.86;1460327;89;21824;-76
2023/12/17 08:19:53;;;;;;;60.37;35.63;;;;;;;0.44;100.00;102607.48;1466902;89;21826;-76
2023/12/17 08:22:19;;;;;;;61.83;34.33;;;;;;;0.47;100.00;102607.02;1446304;89;21827;-76
2023/12/17 08:24:46;;;;;;;64.40;34.60;;;;;;;0.47;100.00;102600.06;1453236;89;21667;-76
2023/12/17 08:27:13;;;;;;;59.70;32.63;;;;;;;0.48;100.00;102605.67;1456708;89;22010;-78
2023/12/17 08:29:40;;;;;;;50.73;30.40;;;;;;;0.50;100.00;102600.45;1469630;89;21698;-78
2023/12/17 08:32:08;;;;;;;63.23;36.57;;;;;;;0.49;100.00;102593.50;1461786;89;22373;-76
2023/12/17 08:34:36;;;;;;;54.97;31.90;;;;;;;0.47;100.00;102596.15;1456340;89;22610;-76
2023/12/17 08:37:02;;;;;;;56.13;31.03;;;;;;;0.50;100.00;102596.53;1442912;89;21752;-75
2023/12/17 08:39:28;;;;;;;62.10;32.43;;;;;;;0.48;100.00;102593.09;1453616;89;22001;-76
2023/12/17 08:41:55;;;;;;;55.23;31.50;;;;;;;0.49;100.00;102599.59;1452672;89;22042;-76
2023/12/17 08:44:23;;;;;;;55.27;30.27;;;;;;;0.51;100.00;102596.94;1463347;89;21868;-75
2023/12/17 08:46:51;;;;;;;49.03;29.30;;;;;;;0.55;100.00;102597.31;1456510;89;21679;-75
2023/12/17 08:49:17;;;;;;;53.50;29.73;;;;;;;0.60;100.00;102608.48;1457996;90;21910;-76
2023/12/17 08:51:43;;;;;;;54.10;32.17;;;;;;;0.66;100.00;102600.12;1456244;89;21792;-77
2023/12/17 08:54:10;;;;;;;58.03;33.50;;;;;;;0.73;100.00;102594.33;1454759;89;21950;-77
2023/12/17 08:56:37;;;;;;;60.63;35.00;;;;;;;0.75;100.00;102596.47;1455415;90;21650;-76
2023/12/17 08:59:04;;;;;;;57.57;33.67;;;;;;;0.71;100.00;102592.19;1445249;90;21709;-78
2023/12/17 09:01:30;;;;;;;60.10;32.47;;;;;;;0.72;100.00;102582.61;1451316;90;21979;-77
2023/12/17 09:03:56;;;;;;;65.57;33.77;;;;;;;0.65;100.00;102589.70;1447943;90;21803;-77
2023/12/17 09:06:22;;;;;;;60.57;35.27;;;;;;;0.65;100.00;102589.70;1449357;90;21839;-77
2023/12/17 09:08:48;;;;;;;58.80;32.57;;;;;;;0.62;100.00;102586.72;1447131;90;21890;-79
2023/12/17 09:11:15;;;;;;;54.33;32.80;;;;;;;0.64;100.00;102589.30;1447207;90;21789;-78
2023/12/17 09:13:42;;;;;;;70.17;39.90;;;;;;;0.66;100.00;102588.80;1453297;90;22019;-77
2023/12/17 09:16:08;;;;;;;72.40;38.97;;;;;;;0.65;100.00;102592.31;1446133;90;21571;-77
2023/12/17 09:18:34;;;;;;;72.20;38.53;;;;;;;0.66;100.00;102593.59;1452716;90;21865;-78
2023/12/17 09:21:01;;;;;;;68.10;35.57;;;;;;;0.68;100.00;102600.07;1451287;89;22460;-76
2023/12/17 09:23:27;;;;;;;62.27;36.13;;;;;;;0.71;100.00;102593.94;1447571;90;21876;-77
2023/12/17 09:25:53;;;;;;;61.27;35.83;;;;;;;0.71;100.00;102590.88;1461030;89;21670;-77
2023/12/17 09:28:19;;;;;;;84.77;43.47;;;;;;;0.69;100.00;102591.34;1454157;89;23039;-77
2023/12/17 09:30:45;;;;;;;78.40;42.23;;;;;;;0.69;100.00;102593.95;1453365;90;21721;-78
2023/12/17 09:33:12;;;;;;;72.93;40.73;;;;;;;0.71;100.00;102596.55;1454403;90;21443;-77
2023/12/17 09:35:39;;;;;;;66.57;37.60;;;;;;;0.73;100.00;102596.93;1454812;90;22646;-77
2023/12/17 09:38:05;;;;;;;66.47;36.47;;;;;;;0.71;100.00;102600.00;1447063;89;21744;-77
2023/12/17 09:40:32;;;;;;;68.33;36.87;;;;;;;0.73;100.00;102606.05;1462394;89;21604;-78
2023/12/17 09:43:02;;;;;;;86.00;42.33;;;;;;;0.77;100.00;102605.09;1465984;89;21766;-78
2023/12/17 09:45:28;;;;;;;61.67;34.43;;;;;;;0.88;100.00;102587.48;1457826;89;21785;-77
2023/12/17 09:47:54;;;;;;;64.97;34.57;;;;;;;0.88;100.00;102587.48;1461754;89;21837;-78
2023/12/17 09:50:21;;;;;;;63.40;34.20;;;;;;;0.88;100.00;102587.48;1463343;88;22075;-77
2023/12/17 09:52:47;;;;;;;69.47;36.53;;;;;;;0.87;100.00;102577.95;1458838;89;21729;-78
2023/12/17 09:55:15;;;;;;;60.67;37.10;;;;;;;0.89;100.00;102581.39;1456780;89;21613;-78
2023/12/17 09:57:42;;;;;;;78.70;47.37;;;;;;;0.88;100.00;102577.05;1462785;89;21719;-78
2023/12/17 10:00:12;;;;;;;62.03;35.23;;;;;;;0.86;100.00;102572.34;1460131;88;21812;-77
2023/12/17 10:02:40;;;;;;;64.03;35.53;;;;;;;0.89;100.00;102580.51;1461835;89;21946;-78
2023/12/17 10:05:07;;;;;;;59.00;34.20;;;;;;;0.92;100.00;102567.86;1457712;88;21742;-76
2023/12/17 10:07:37;;;;;;;66.90;34.47;;;;;;;0.92;100.00;102567.86;1459622;89;22719;-76
2023/12/17 10:10:04;;;;;;;62.10;33.67;;;;;;;1.01;100.00;102579.41;1534057;89;21660;-78
2023/12/17 10:12:30;;;;;;;74.10;34.80;;;;;;;1.03;100.00;102581.52;1392982;89;21721;-77
2023/12/17 10:14:56;;;;;;;67.70;38.13;;;;;;;1.03;100.00;102572.39;1532588;89;21450;-78
2023/12/17 10:17:23;;;;;;;68.23;36.87;;;;;;;1.01;100.00;102574.20;1387720;88;21580;-77
2023/12/17 10:19:53;;;;;;;72.23;37.63;;;;;;;0.92;100.00;102568.70;1393255;88;21870;-77
2023/12/17 10:22:20;;;;;;;73.40;36.95;;;;;;;0.92;100.00;102568.70;1533620;89;21505;-78
2023/12/17 10:24:47;;;;;;;52.23;31.27;;;;;;;0.93;100.00;102566.53;1386981;89;21338;-77
2023/12/17 10:27:20;;;;;;;59.20;34.63;;;;;;;0.89;100.00;102563.14;1393537;89;21868;-77
2023/12/17 10:29:52;;;;;;;63.27;34.17;;;;;;;0.89;100.00;102563.14;1543523;88;21700;-78
2023/12/17 10:32:23;;;;;;;57.87;32.17;;;;;;;0.92;100.00;102562.64;1385238;89;22528;-77
2023/12/17 10:34:51;;;;;;;61.73;35.20;;;;;;;0.90;100.00;102561.39;1384903;88;21831;-77
2023/12/17 10:37:25;;;;;;;62.20;34.73;;;;;;;0.91;100.00;102548.75;1386224;88;22557;-79
2023/12/17 10:39:54;;;;;;;67.67;36.23;;;;;;;0.87;100.00;102547.97;1435769;89;22603;-75
2023/12/17 10:42:22;;;;;;;69.57;38.77;;;;;;;0.88;100.00;102549.67;1441730;89;21956;-78
2023/12/17 10:44:52;;;;;;;71.37;36.23;;;;;;;0.88;100.00;102549.67;1455434;89;21755;-78
2023/12/17 10:47:22;;;;;;;57.17;32.57;;;;;;;0.93;100.00;102556.55;1458385;89;22712;-78
2023/12/17 10:49:50;;;;;;;52.85;29.40;;;;;;;0.94;100.00;102565.63;1447128;89;21797;-77
2023/12/17 10:52:16;;;;;;;53.37;30.20;;;;;;;0.90;100.00;102563.55;1461800;88;21654;-78
2023/12/17 10:54:43;;;;;;;48.73;29.40;;;;;;;0.92;100.00;102579.59;1459242;89;21774;-78
2023/12/17 10:57:16;;;;;;;52.43;30.63;;;;;;;0.93;100.00;102570.89;1454867;89;21931;-76
2023/12/17 10:59:45;;;;;;;58.97;35.97;;;;;;;1.01;100.00;102571.59;1460660;88;22611;-75
2023/12/17 11:02:12;;;;;;;57.80;31.83;;;;;;;1.00;100.00;102567.25;1460405;89;21785;-77